createdAt,value
2023-02-23T00:02:07.757Z,5.67
2023-02-23T00:04:36.074Z,5.58
2023-02-23T00:07:06.180Z,5.50
2023-02-23T00:09:36.776Z,5.46
2023-02-23T00:12:10.250Z,5.42
2023-02-23T00:14:38.621Z,5.39
2023-02-23T00:17:14.841Z,5.33
2023-02-23T00:19:43.770Z,5.25
2023-02-23T00:22:12.667Z,5.19
2023-02-23T00:24:42.408Z,5.16
2023-02-23T00:27:12.726Z,5.16
2023-02-23T00:29:40.467Z,5.16
2023-02-23T00:32:08.737Z,5.13
2023-02-23T00:34:37.181Z,5.08
2023-02-23T00:37:04.674Z,4.99
2023-02-23T00:39:32.135Z,4.93
2023-02-23T00:42:03.047Z,4.92
2023-02-23T00:44:31.502Z,4.91
2023-02-23T00:46:58.935Z,4.89
2023-02-23T00:49:26.858Z,4.91
2023-02-23T00:51:54.453Z,4.86
2023-02-23T00:54:22.380Z,4.86
2023-02-23T00:56:50.518Z,4.82
2023-02-23T00:59:19.078Z,4.77
2023-02-23T01:01:46.436Z,4.74
2023-02-23T01:04:14.511Z,4.69
2023-02-23T01:06:43.118Z,4.64
2023-02-23T01:09:16.885Z,4.60
2023-02-23T01:11:46.952Z,4.56
2023-02-23T01:14:15.242Z,4.54
2023-02-23T01:16:42.550Z,4.51
2023-02-23T01:19:10.943Z,4.51
2023-02-23T01:21:42.279Z,4.40
2023-02-23T01:24:12.005Z,4.38
2023-02-23T01:26:44.009Z,4.37
2023-02-23T01:29:15.333Z,4.37
2023-02-23T01:31:47.427Z,4.40
2023-02-23T01:34:21.691Z,4.36
2023-02-23T01:36:49.466Z,4.38
2023-02-23T01:39:20.323Z,4.37
2023-02-23T01:41:48.781Z,4.37
2023-02-23T01:44:16.041Z,4.37
2023-02-23T01:46:47.509Z,4.37
2023-02-23T01:49:25.490Z,4.34
2023-02-23T01:52:10.816Z,4.34
2023-02-23T01:54:50.507Z,4.33
2023-02-23T01:57:24.897Z,4.32
2023-02-23T01:59:55.014Z,4.32
2023-02-23T02:02:33.437Z,4.34
2023-02-23T02:05:04.659Z,4.38
2023-02-23T02:07:35.359Z,4.38
2023-02-23T02:10:13.105Z,4.38
2023-02-23T02:12:44.580Z,4.37
2023-02-23T02:15:19.760Z,4.38
2023-02-23T02:18:09.162Z,4.40
2023-02-23T02:20:44.624Z,4.40
2023-02-23T02:23:39.300Z,4.37
2023-02-23T02:26:39.792Z,4.43
2023-02-23T02:29:26.715Z,4.51
2023-02-23T02:32:43.871Z,4.60
2023-02-23T02:35:33.572Z,4.64
2023-02-23T02:38:16.581Z,4.74
2023-02-23T02:41:04.289Z,4.79
2023-02-23T02:44:05.361Z,4.86
2023-02-23T02:46:40.397Z,4.85
2023-02-23T02:49:42.892Z,4.89
2023-02-23T02:52:23.876Z,4.89
2023-02-23T02:54:56.523Z,4.92
2023-02-23T02:57:28.727Z,4.92
2023-02-23T03:00:16.634Z,4.98
2023-02-23T03:03:02.764Z,4.98
2023-02-23T03:06:10.936Z,4.99
2023-02-23T03:09:11.640Z,4.99
2023-02-23T03:12:12.169Z,4.96
2023-02-23T03:15:10.697Z,4.96
2023-02-23T03:18:06.635Z,4.95
2023-02-23T03:20:52.599Z,4.86
2023-02-23T03:23:51.729Z,4.78
2023-02-23T03:26:56.591Z,4.65
2023-02-23T03:30:03.672Z,4.57
2023-02-23T03:33:06.729Z,4.48
2023-02-23T03:36:10.893Z,4.43
2023-02-23T03:39:18.900Z,4.34
2023-02-23T03:42:09.417Z,4.32
2023-02-23T03:45:00.876Z,4.36
2023-02-23T03:47:53.984Z,4.43
2023-02-23T03:50:47.492Z,4.53
2023-02-23T03:53:40.810Z,4.58
2023-02-23T03:56:32.398Z,4.56
2023-02-23T03:59:24.261Z,4.50
2023-02-23T04:02:14.052Z,4.46
2023-02-23T04:05:05.073Z,4.40
2023-02-23T04:07:54.099Z,4.34
2023-02-23T04:10:42.795Z,4.30
2023-02-23T04:13:20.712Z,4.26
2023-02-23T04:16:10.954Z,4.17
2023-02-23T04:18:39.819Z,4.14
2023-02-23T04:21:07.603Z,4.11
2023-02-23T04:23:37.899Z,4.06
2023-02-23T04:26:05.400Z,4.03
2023-02-23T04:28:32.760Z,4.02
2023-02-23T04:31:00.745Z,3.96
2023-02-23T04:33:28.277Z,3.92
2023-02-23T04:35:55.852Z,3.89
2023-02-23T04:38:24.190Z,3.86
2023-02-23T04:40:51.777Z,3.86
2023-02-23T04:43:19.132Z,3.83
2023-02-23T04:45:46.566Z,3.86
2023-02-23T04:48:13.950Z,3.85
2023-02-23T04:50:41.462Z,3.89
2023-02-23T04:53:09.241Z,3.88
2023-02-23T04:55:36.640Z,3.83
2023-02-23T04:58:04.142Z,3.82
2023-02-23T05:00:31.574Z,3.83
2023-02-23T05:02:59.134Z,3.83
2023-02-23T05:05:26.578Z,3.89
2023-02-23T05:07:55.107Z,3.92
2023-02-23T05:10:22.910Z,3.92
2023-02-23T05:12:50.523Z,3.96
2023-02-23T05:15:17.924Z,3.98
2023-02-23T05:17:45.383Z,4.05
2023-02-23T05:20:15.243Z,4.10
2023-02-23T05:22:42.780Z,4.20
2023-02-23T05:25:10.493Z,4.27
2023-02-23T05:27:38.848Z,4.34
2023-02-23T05:30:07.930Z,4.40
2023-02-23T05:32:35.647Z,4.47
2023-02-23T05:35:03.742Z,4.56
2023-02-23T05:37:31.188Z,4.58
2023-02-23T05:39:58.537Z,4.61
2023-02-23T05:42:26.258Z,4.62
2023-02-23T05:44:53.580Z,4.68
2023-02-23T05:47:21.012Z,4.69
2023-02-23T05:49:48.436Z,4.77
2023-02-23T05:52:15.854Z,4.81
2023-02-23T05:54:43.445Z,4.91
2023-02-23T05:57:10.801Z,4.99
2023-02-23T05:59:38.393Z,5.04
2023-02-23T06:02:06.219Z,5.08
2023-02-23T06:04:34.172Z,5.06
2023-02-23T06:07:01.674Z,5.08
2023-02-23T06:09:29.166Z,5.12
2023-02-23T06:11:57.020Z,5.20
2023-02-23T06:14:24.414Z,5.39
2023-02-23T06:16:51.894Z,5.64
2023-02-23T06:19:19.386Z,5.91
2023-02-23T06:21:46.765Z,6.23
2023-02-23T06:24:14.160Z,6.44
2023-02-23T06:26:43.469Z,6.71
2023-02-23T06:29:12.543Z,7.26
2023-02-23T06:31:40.181Z,7.86
2023-02-23T06:34:07.608Z,8.50
2023-02-23T06:36:35.105Z,9.08
2023-02-23T06:39:03.706Z,9.78
2023-02-23T06:41:33.289Z,10.03
2023-02-23T06:44:00.589Z,10.04
2023-02-23T06:46:27.997Z,10.00
2023-02-23T06:48:56.913Z,10.03
2023-02-23T06:51:24.430Z,10.14
2023-02-23T06:53:55.036Z,10.00
2023-02-23T06:56:22.776Z,9.91
2023-02-23T06:58:50.217Z,10.01
2023-02-23T07:01:18.900Z,10.69
2023-02-23T07:03:47.438Z,11.90
2023-02-23T07:06:15.029Z,13.23
2023-02-23T07:08:42.321Z,14.22
2023-02-23T07:11:13.556Z,15.08
2023-02-23T07:13:41.176Z,16.06
2023-02-23T07:16:09.187Z,16.80
2023-02-23T07:18:36.711Z,17.64
2023-02-23T07:21:04.182Z,17.51
2023-02-23T07:23:31.608Z,17.78
2023-02-23T07:25:59.582Z,17.50
2023-02-23T07:28:30.030Z,17.58
2023-02-23T07:30:58.732Z,18.05
2023-02-23T07:33:26.179Z,18.12
2023-02-23T07:35:53.660Z,18.10
2023-02-23T07:38:21.039Z,16.21
2023-02-23T07:40:51.131Z,15.17
2023-02-23T07:43:22.819Z,14.77
2023-02-23T07:45:51.727Z,16.11
2023-02-23T07:48:20.781Z,17.31
2023-02-23T07:50:48.652Z,17.43
2023-02-23T07:53:16.073Z,17.09
2023-02-23T07:55:43.630Z,16.61
2023-02-23T07:58:13.322Z,15.89
2023-02-23T08:00:40.778Z,15.07
2023-02-23T08:03:08.224Z,14.32
2023-02-23T08:05:36.728Z,14.63
2023-02-23T08:08:04.344Z,14.80
2023-02-23T08:10:32.635Z,14.45
2023-02-23T08:13:00.081Z,15.20
2023-02-23T08:15:27.443Z,16.40
2023-02-23T08:17:54.978Z,17.12
2023-02-23T08:20:22.429Z,17.43
2023-02-23T08:22:57.550Z,18.05
2023-02-23T08:25:25.614Z,18.70
2023-02-23T08:27:54.498Z,19.36
2023-02-23T08:30:24.302Z,19.60
2023-02-23T08:32:51.769Z,19.45
2023-02-23T08:35:20.398Z,18.09
2023-02-23T08:37:47.850Z,18.60
2023-02-23T08:40:15.900Z,18.91
2023-02-23T08:42:43.195Z,18.29
2023-02-23T08:45:12.165Z,19.19
2023-02-23T08:47:39.568Z,19.62
2023-02-23T08:50:10.850Z,19.40
2023-02-23T08:52:39.484Z,20.28
2023-02-23T08:55:08.080Z,20.33
2023-02-23T08:57:37.973Z,19.32
2023-02-23T09:00:14.342Z,20.04
2023-02-23T09:02:48.244Z,19.71
2023-02-23T09:05:16.934Z,19.42
2023-02-23T09:07:46.348Z,20.05
2023-02-23T09:10:20.410Z,19.64
2023-02-23T09:12:47.877Z,20.14
2023-02-23T09:15:15.321Z,20.45
2023-02-23T09:17:44.969Z,20.01
2023-02-23T09:20:15.731Z,20.55
2023-02-23T09:22:50.142Z,20.87
2023-02-23T09:25:22.712Z,20.77
2023-02-23T09:27:57.085Z,20.93
2023-02-23T09:30:24.518Z,20.31
2023-02-23T09:32:54.646Z,20.45
2023-02-23T09:35:25.016Z,20.46
2023-02-23T09:37:55.899Z,21.07
2023-02-23T09:40:28.057Z,21.28
2023-02-23T09:43:13.890Z,21.11
2023-02-23T09:45:46.481Z,20.81
2023-02-23T09:48:20.604Z,20.73
2023-02-23T09:50:52.874Z,20.86
2023-02-23T09:53:53.651Z,20.90
2023-02-23T09:56:37.395Z,21.26
2023-02-23T09:59:09.172Z,21.71
2023-02-23T10:02:05.458Z,21.89
2023-02-23T10:04:57.962Z,21.96
2023-02-23T10:07:43.572Z,22.20
2023-02-23T10:10:44.441Z,22.33
2023-02-23T10:13:49.284Z,21.18
2023-02-23T10:16:33.046Z,21.88
2023-02-23T10:19:21.350Z,21.37
2023-02-23T10:22:03.824Z,21.63
2023-02-23T10:24:41.634Z,21.24
2023-02-23T10:27:15.740Z,21.21
2023-02-23T10:29:56.015Z,20.97
2023-02-23T10:32:46.037Z,21.11
2023-02-23T10:35:17.723Z,21.01
2023-02-23T10:37:47.516Z,20.83
2023-02-23T10:40:24.426Z,21.30
2023-02-23T10:42:53.278Z,20.77
2023-02-23T10:45:24.743Z,20.38
2023-02-23T10:48:07.549Z,20.15
2023-02-23T10:50:39.267Z,20.43
2023-02-23T10:53:18.621Z,20.77
2023-02-23T10:55:59.634Z,21.39
2023-02-23T10:58:28.818Z,22.14
2023-02-23T11:01:01.957Z,21.62
2023-02-23T11:03:41.733Z,21.41
2023-02-23T11:06:33.294Z,21.58
2023-02-23T11:09:26.881Z,21.69
2023-02-23T11:12:02.869Z,21.62
2023-02-23T11:14:32.035Z,20.87
2023-02-23T11:17:00.724Z,20.42
2023-02-23T11:19:37.214Z,20.68
2023-02-23T11:22:06.392Z,21.04
2023-02-23T11:24:41.310Z,20.68
2023-02-23T11:27:23.577Z,20.81
2023-02-23T11:29:57.681Z,21.24
2023-02-23T11:32:38.772Z,21.06
2023-02-23T11:35:21.237Z,21.01
2023-02-23T11:37:50.121Z,20.56
2023-02-23T11:40:25.052Z,20.38
2023-02-23T11:42:56.491Z,20.33
2023-02-23T11:45:33.837Z,20.53
2023-02-23T11:48:04.034Z,20.63
2023-02-23T11:50:36.623Z,20.49
2023-02-23T11:53:17.696Z,19.50
2023-02-23T11:55:55.838Z,19.45
2023-02-23T11:58:38.747Z,19.46
2023-02-23T12:01:13.827Z,19.09
2023-02-23T12:03:57.740Z,19.35
2023-02-23T12:06:33.184Z,19.47
2023-02-23T12:09:27.961Z,19.23
2023-02-23T12:12:07.008Z,18.77
2023-02-23T12:14:42.459Z,18.46
2023-02-23T12:17:21.504Z,19.01
2023-02-23T12:20:04.345Z,19.05
2023-02-23T12:22:50.719Z,19.32
2023-02-23T12:25:30.246Z,19.39
2023-02-23T12:28:18.788Z,19.50
2023-02-23T12:30:56.543Z,19.23
2023-02-23T12:33:39.337Z,19.09
2023-02-23T12:36:18.390Z,18.51
2023-02-23T12:38:58.815Z,18.50
2023-02-23T12:41:43.030Z,18.47
2023-02-23T12:44:46.640Z,17.92
2023-02-23T12:47:34.505Z,18.02
2023-02-23T12:50:31.737Z,17.92
2023-02-23T12:53:20.650Z,18.26
2023-02-23T12:56:04.366Z,18.41
2023-02-23T12:59:05.266Z,18.30
2023-02-23T13:01:59.539Z,18.19
2023-02-23T13:04:57.685Z,18.03
2023-02-23T13:07:41.868Z,17.82
2023-02-23T13:10:58.591Z,17.75
2023-02-23T13:13:52.939Z,17.84
2023-02-23T13:16:47.807Z,17.88
2023-02-23T13:19:55.752Z,17.65
2023-02-23T13:22:40.624Z,17.61
2023-02-23T13:25:38.247Z,17.40
2023-02-23T13:28:14.979Z,17.41
2023-02-23T13:30:47.364Z,17.40
2023-02-23T13:33:35.052Z,17.36
2023-02-23T13:36:12.950Z,17.36
2023-02-23T13:39:25.783Z,17.34
2023-02-23T13:42:10.811Z,17.27
2023-02-23T13:44:51.969Z,17.20
2023-02-23T13:47:51.898Z,17.16
2023-02-23T13:50:46.850Z,16.82
2023-02-23T13:53:46.950Z,16.61
2023-02-23T13:56:23.808Z,16.57
2023-02-23T13:59:00.870Z,16.55
2023-02-23T14:01:36.232Z,16.61
2023-02-23T14:04:13.464Z,16.45
2023-02-23T14:06:56.617Z,16.44
2023-02-23T14:09:52.232Z,16.27
2023-02-23T14:12:41.640Z,16.06
2023-02-23T14:15:24.978Z,16.03
2023-02-23T14:18:28.574Z,16.00
2023-02-23T14:20:57.000Z,15.92
2023-02-23T14:23:24.381Z,15.86
2023-02-23T14:26:15.284Z,15.74
2023-02-23T14:29:09.627Z,15.63
2023-02-23T14:31:37.452Z,15.66
2023-02-23T14:34:13.569Z,15.62
2023-02-23T14:36:44.831Z,15.62
2023-02-23T14:39:28.461Z,15.66
2023-02-23T14:42:00.112Z,15.56
2023-02-23T14:44:36.624Z,15.45
2023-02-23T14:47:16.236Z,15.53
2023-02-23T14:49:57.158Z,15.56
2023-02-23T14:52:32.235Z,15.48
2023-02-23T14:55:09.121Z,15.46
2023-02-23T14:57:39.469Z,15.44
2023-02-23T15:00:25.149Z,15.44
2023-02-23T15:03:13.764Z,15.39
2023-02-23T15:05:56.446Z,15.34
2023-02-23T15:08:27.435Z,15.27
2023-02-23T15:11:12.388Z,15.20
2023-02-23T15:13:50.381Z,15.11
2023-02-23T15:16:32.129Z,15.08
2023-02-23T15:19:02.675Z,15.00
2023-02-23T15:21:30.710Z,14.96
2023-02-23T15:24:06.312Z,14.86
2023-02-23T15:26:37.532Z,14.80
2023-02-23T15:29:10.802Z,14.75
2023-02-23T15:31:40.786Z,14.65
2023-02-23T15:34:11.774Z,14.57
2023-02-23T15:36:41.346Z,14.52
2023-02-23T15:39:19.231Z,14.45
2023-02-23T15:41:49.696Z,14.30
2023-02-23T15:44:32.222Z,14.25
2023-02-23T15:47:19.033Z,14.15
2023-02-23T15:49:47.131Z,14.01
2023-02-23T15:52:35.225Z,13.90
2023-02-23T15:55:08.709Z,13.78
2023-02-23T15:57:58.794Z,13.67
2023-02-23T16:00:41.000Z,13.54
2023-02-23T16:03:25.114Z,13.46
2023-02-23T16:06:24.138Z,13.29
2023-02-23T16:09:24.168Z,13.13
2023-02-23T16:12:08.768Z,13.01
2023-02-23T16:15:06.488Z,12.83
2023-02-23T16:17:44.306Z,12.67
2023-02-23T16:20:44.227Z,12.50
2023-02-23T16:23:34.062Z,12.34
2023-02-23T16:26:12.175Z,12.22
2023-02-23T16:28:46.424Z,12.16
2023-02-23T16:31:28.029Z,12.15
2023-02-23T16:34:00.097Z,12.03
2023-02-23T16:36:40.192Z,11.99
2023-02-23T16:39:12.162Z,11.93
2023-02-23T16:41:39.885Z,11.88
2023-02-23T16:44:13.953Z,11.77
2023-02-23T16:47:05.304Z,11.64
2023-02-23T16:49:32.834Z,11.58
2023-02-23T16:52:01.253Z,11.47
2023-02-23T16:54:28.587Z,11.38
2023-02-23T16:56:56.708Z,11.26
2023-02-23T16:59:24.407Z,11.09
2023-02-23T17:01:51.850Z,10.97
2023-02-23T17:04:21.853Z,10.89
2023-02-23T17:06:55.690Z,10.86
2023-02-23T17:09:24.168Z,10.82
2023-02-23T17:11:51.474Z,10.82
2023-02-23T17:14:31.809Z,10.83
2023-02-23T17:17:00.310Z,10.80
2023-02-23T17:19:27.683Z,10.82
2023-02-23T17:21:55.053Z,10.82
2023-02-23T17:24:26.101Z,10.85
2023-02-23T17:26:55.402Z,10.89
2023-02-23T17:29:23.135Z,10.85
2023-02-23T17:31:51.359Z,10.82
2023-02-23T17:34:18.958Z,10.77
2023-02-23T17:36:46.267Z,10.76
2023-02-23T17:39:14.187Z,10.64
2023-02-23T17:41:41.636Z,10.56
2023-02-23T17:44:09.668Z,10.52
2023-02-23T17:46:37.479Z,10.49
2023-02-23T17:49:05.207Z,10.46
2023-02-23T17:51:32.673Z,10.40
2023-02-23T17:54:00.075Z,10.35
2023-02-23T17:56:28.270Z,10.35
2023-02-23T17:58:55.783Z,10.33
2023-02-23T18:01:23.510Z,10.24
2023-02-23T18:03:51.238Z,10.14
2023-02-23T18:06:19.795Z,10.10
2023-02-23T18:08:47.322Z,10.07
2023-02-23T18:11:16.496Z,10.07
2023-02-23T18:13:44.901Z,10.08
2023-02-23T18:16:13.611Z,10.08
2023-02-23T18:18:46.459Z,10.11
2023-02-23T18:21:19.314Z,10.11
2023-02-23T18:23:47.453Z,10.14
2023-02-23T18:26:19.950Z,10.11
2023-02-23T18:28:47.944Z,10.10
2023-02-23T18:31:22.556Z,10.11
2023-02-23T18:33:52.901Z,10.11
2023-02-23T18:36:31.663Z,10.13
2023-02-23T18:39:01.123Z,10.11
2023-02-23T18:41:30.994Z,10.06
2023-02-23T18:44:05.064Z,10.03
2023-02-23T18:46:32.949Z,10.00
2023-02-23T18:49:01.489Z,9.96
2023-02-23T18:51:29.130Z,9.97
2023-02-23T18:53:56.436Z,9.91
2023-02-23T18:56:27.736Z,9.89
2023-02-23T18:59:01.709Z,9.89
2023-02-23T19:01:33.423Z,9.87
2023-02-23T19:04:03.876Z,9.79
2023-02-23T19:06:32.211Z,9.73
2023-02-23T19:09:03.407Z,9.72
2023-02-23T19:11:34.259Z,9.68
2023-02-23T19:14:08.571Z,9.62
2023-02-23T19:16:38.172Z,9.59
2023-02-23T19:19:07.346Z,9.58
2023-02-23T19:21:36.905Z,9.55
2023-02-23T19:24:06.319Z,9.53
2023-02-23T19:26:39.877Z,9.52
2023-02-23T19:29:07.776Z,9.49
2023-02-23T19:31:36.897Z,9.49
2023-02-23T19:34:05.067Z,9.52
2023-02-23T19:36:33.916Z,9.53
2023-02-23T19:39:10.560Z,9.51
2023-02-23T19:41:40.244Z,9.52
2023-02-23T19:44:08.004Z,9.49
2023-02-23T19:46:36.827Z,9.45
2023-02-23T19:49:04.713Z,9.39
2023-02-23T19:51:32.611Z,9.36
2023-02-23T19:54:00.305Z,9.34
2023-02-23T19:56:29.116Z,9.34
2023-02-23T19:58:57.416Z,9.35
2023-02-23T20:01:27.683Z,9.42
2023-02-23T20:03:56.782Z,9.45
2023-02-23T20:06:27.524Z,9.52
2023-02-23T20:08:58.163Z,9.56
2023-02-23T20:11:25.721Z,9.59
2023-02-23T20:13:54.725Z,9.60
2023-02-23T20:16:22.296Z,9.62
2023-02-23T20:18:49.970Z,9.65
2023-02-23T20:21:23.370Z,9.66
2023-02-23T20:23:51.957Z,9.66
2023-02-23T20:26:28.184Z,9.65
2023-02-23T20:28:57.624Z,9.63
2023-02-23T20:31:36.167Z,9.66
2023-02-23T20:34:09.036Z,9.65
2023-02-23T20:36:38.169Z,9.63
2023-02-23T20:39:06.259Z,9.65
2023-02-23T20:41:33.826Z,9.62
2023-02-23T20:44:01.418Z,9.60
2023-02-23T20:46:30.644Z,9.63
2023-02-23T20:48:59.409Z,9.62
2023-02-23T20:51:27.788Z,9.66
2023-02-23T20:53:55.258Z,9.63
2023-02-23T20:56:23.045Z,9.63
2023-02-23T20:58:52.545Z,9.63
2023-02-23T21:01:27.022Z,9.59
2023-02-23T21:03:56.437Z,9.58
2023-02-23T21:06:25.375Z,9.56
2023-02-23T21:09:02.955Z,9.60
2023-02-23T21:11:32.787Z,9.60
2023-02-23T21:14:00.784Z,9.60
2023-02-23T21:16:32.307Z,9.62
2023-02-23T21:19:05.885Z,9.59
2023-02-23T21:21:50.121Z,9.58
2023-02-23T21:24:19.212Z,9.52
2023-02-23T21:26:46.703Z,9.45
2023-02-23T21:29:16.551Z,9.36
2023-02-23T21:31:46.728Z,9.31
2023-02-23T21:34:18.843Z,9.28
2023-02-23T21:36:47.518Z,9.25
2023-02-23T21:39:15.062Z,9.12
2023-02-23T21:41:42.491Z,8.91
2023-02-23T21:44:10.025Z,8.59
2023-02-23T21:46:37.564Z,8.36
2023-02-23T21:49:09.605Z,8.24
2023-02-23T21:51:37.429Z,8.18
2023-02-23T21:54:05.753Z,8.11
2023-02-23T21:56:34.965Z,8.14
2023-02-23T21:59:04.795Z,8.16
2023-02-23T22:01:36.282Z,8.15
2023-02-23T22:04:06.288Z,8.12
2023-02-23T22:06:40.899Z,8.09
2023-02-23T22:09:15.784Z,8.12
2023-02-23T22:11:47.106Z,8.15
2023-02-23T22:14:16.802Z,8.22
2023-02-23T22:16:45.764Z,8.26
2023-02-23T22:19:13.293Z,8.28
2023-02-23T22:21:42.173Z,8.35
2023-02-23T22:24:12.783Z,8.39
2023-02-23T22:26:50.313Z,8.39
2023-02-23T22:29:17.943Z,8.36
2023-02-23T22:31:45.413Z,8.38
2023-02-23T22:34:12.991Z,8.42
2023-02-23T22:36:40.299Z,8.42
2023-02-23T22:39:09.743Z,8.48
2023-02-23T22:41:43.830Z,8.53
2023-02-23T22:44:18.796Z,8.57
2023-02-23T22:46:48.311Z,8.63
2023-02-23T22:49:19.868Z,8.66
2023-02-23T22:51:47.706Z,8.73
2023-02-23T22:54:15.566Z,8.73
2023-02-23T22:56:43.042Z,8.79
2023-02-23T22:59:11.038Z,8.83
2023-02-23T23:01:39.808Z,8.85
2023-02-23T23:04:10.460Z,8.87
2023-02-23T23:06:40.667Z,8.91
2023-02-23T23:09:16.567Z,8.88
2023-02-23T23:11:45.265Z,8.93
2023-02-23T23:14:13.133Z,8.84
2023-02-23T23:16:48.172Z,8.85
2023-02-23T23:19:23.800Z,8.77
2023-02-23T23:22:00.418Z,8.66
2023-02-23T23:24:28.035Z,8.66
2023-02-23T23:26:55.842Z,8.69
2023-02-23T23:29:25.725Z,8.66
2023-02-23T23:31:53.883Z,8.63
2023-02-23T23:34:21.892Z,8.62
2023-02-23T23:36:52.960Z,8.66
2023-02-23T23:39:25.944Z,8.69
2023-02-23T23:41:54.436Z,8.70
2023-02-23T23:44:29.216Z,8.62
2023-02-23T23:46:58.006Z,8.49
2023-02-23T23:49:26.082Z,8.43
2023-02-23T23:51:58.561Z,8.41
2023-02-23T23:54:32.740Z,8.38
2023-02-23T23:57:01.564Z,8.35
2023-02-23T23:59:29.692Z,8.36
